sensor_id;sensor_type;location;lat;lon;timestamp;P1;durP1;ratioP1;P2;durP2;ratioP2
36597;SDS011;22607;49.550;11.940;2023-09-07T00:00:15;9.02;;;3.53;;
36597;SDS011;22607;49.550;11.940;2023-09-07T00:02:42;10.35;;;4.05;;
36597;SDS011;22607;49.550;11.940;2023-09-07T00:05:09;8.43;;;3.80;;
36597;SDS011;22607;49.550;11.940;2023-09-07T00:07:36;8.32;;;3.90;;
36597;SDS011;22607;49.550;11.940;2023-09-07T00:10:03;8.00;;;3.50;;
36597;SDS011;22607;49.550;11.940;2023-09-07T00:12:33;7.68;;;3.70;;
36597;SDS011;22607;49.550;11.940;2023-09-07T00:14:59;8.45;;;3.17;;
36597;SDS011;22607;49.550;11.940;2023-09-07T00:17:26;8.05;;;3.80;;
36597;SDS011;22607;49.550;11.940;2023-09-07T00:19:53;7.28;;;3.17;;
36597;SDS011;22607;49.550;11.940;2023-09-07T00:22:23;8.15;;;3.80;;
36597;SDS011;22607;49.550;11.940;2023-09-07T00:24:51;7.88;;;3.28;;
36597;SDS011;22607;49.550;11.940;2023-09-07T00:27:18;8.68;;;3.78;;
36597;SDS011;22607;49.550;11.940;2023-09-07T00:29:45;8.15;;;3.65;;
36597;SDS011;22607;49.550;11.940;2023-09-07T00:32:11;9.50;;;3.60;;
36597;SDS011;22607;49.550;11.940;2023-09-07T00:34:38;7.75;;;3.40;;
36597;SDS011;22607;49.550;11.940;2023-09-07T00:37:04;8.57;;;3.38;;
36597;SDS011;22607;49.550;11.940;2023-09-07T00:39:31;8.23;;;3.72;;
36597;SDS011;22607;49.550;11.940;2023-09-07T00:41:57;7.90;;;3.40;;
36597;SDS011;22607;49.550;11.940;2023-09-07T00:44:24;8.43;;;3.75;;
36597;SDS011;22607;49.550;11.940;2023-09-07T00:46:51;7.40;;;3.55;;
36597;SDS011;22607;49.550;11.940;2023-09-07T00:49:18;8.30;;;3.78;;
36597;SDS011;22607;49.550;11.940;2023-09-07T00:51:44;8.23;;;3.50;;
36597;SDS011;22607;49.550;11.940;2023-09-07T00:54:11;8.05;;;3.60;;
36597;SDS011;22607;49.550;11.940;2023-09-07T00:56:38;8.57;;;3.83;;
36597;SDS011;22607;49.550;11.940;2023-09-07T00:59:04;8.10;;;3.83;;
36597;SDS011;22607;49.550;11.940;2023-09-07T01:01:34;9.00;;;4.78;;
36597;SDS011;22607;49.550;11.940;2023-09-07T01:04:01;9.57;;;3.92;;
36597;SDS011;22607;49.550;11.940;2023-09-07T01:06:30;9.80;;;4.07;;
36597;SDS011;22607;49.550;11.940;2023-09-07T01:09:03;8.98;;;3.80;;
36597;SDS011;22607;49.550;11.940;2023-09-07T01:11:41;11.18;;;4.28;;
36597;SDS011;22607;49.550;11.940;2023-09-07T01:14:07;10.50;;;4.43;;
36597;SDS011;22607;49.550;11.940;2023-09-07T01:16:34;10.13;;;3.67;;
36597;SDS011;22607;49.550;11.940;2023-09-07T01:19:02;8.80;;;4.25;;
36597;SDS011;22607;49.550;11.940;2023-09-07T01:21:34;9.45;;;4.00;;
36597;SDS011;22607;49.550;11.940;2023-09-07T01:24:10;7.95;;;3.83;;
36597;SDS011;22607;49.550;11.940;2023-09-07T01:26:38;10.05;;;4.13;;
36597;SDS011;22607;49.550;11.940;2023-09-07T01:29:05;8.40;;;3.83;;
36597;SDS011;22607;49.550;11.940;2023-09-07T01:31:36;9.52;;;3.78;;
36597;SDS011;22607;49.550;11.940;2023-09-07T01:36:32;9.32;;;4.18;;
36597;SDS011;22607;49.550;11.940;2023-09-07T01:38:59;9.60;;;3.97;;
36597;SDS011;22607;49.550;11.940;2023-09-07T01:41:30;10.93;;;4.15;;
36597;SDS011;22607;49.550;11.940;2023-09-07T01:43:57;9.25;;;3.90;;
36597;SDS011;22607;49.550;11.940;2023-09-07T01:46:29;9.27;;;4.60;;
36597;SDS011;22607;49.550;11.940;2023-09-07T01:48:55;9.35;;;4.30;;
36597;SDS011;22607;49.550;11.940;2023-09-07T01:51:22;9.93;;;4.20;;
36597;SDS011;22607;49.550;11.940;2023-09-07T01:53:49;8.77;;;4.20;;
36597;SDS011;22607;49.550;11.940;2023-09-07T01:56:16;11.52;;;4.68;;
36597;SDS011;22607;49.550;11.940;2023-09-07T01:58:43;9.52;;;4.65;;
36597;SDS011;22607;49.550;11.940;2023-09-07T02:01:20;9.05;;;4.28;;
36597;SDS011;22607;49.550;11.940;2023-09-07T02:04:03;10.40;;;4.55;;
36597;SDS011;22607;49.550;11.940;2023-09-07T02:06:29;9.05;;;4.10;;
36597;SDS011;22607;49.550;11.940;2023-09-07T02:08:56;8.48;;;4.30;;
36597;SDS011;22607;49.550;11.940;2023-09-07T02:11:23;10.70;;;4.60;;
36597;SDS011;22607;49.550;11.940;2023-09-07T02:13:50;8.77;;;4.28;;
36597;SDS011;22607;49.550;11.940;2023-09-07T02:16:16;9.10;;;4.47;;
36597;SDS011;22607;49.550;11.940;2023-09-07T02:18:44;10.55;;;4.35;;
36597;SDS011;22607;49.550;11.940;2023-09-07T02:21:13;9.45;;;4.25;;
36597;SDS011;22607;49.550;11.940;2023-09-07T02:23:40;9.57;;;4.35;;
36597;SDS011;22607;49.550;11.940;2023-09-07T02:26:07;9.30;;;4.20;;
36597;SDS011;22607;49.550;11.940;2023-09-07T02:28:34;10.80;;;4.38;;
36597;SDS011;22607;49.550;11.940;2023-09-07T02:31:04;9.95;;;4.30;;
36597;SDS011;22607;49.550;11.940;2023-09-07T02:33:31;9.38;;;4.22;;
36597;SDS011;22607;49.550;11.940;2023-09-07T02:35:58;10.32;;;3.90;;
36597;SDS011;22607;49.550;11.940;2023-09-07T02:38:25;8.88;;;4.15;;
36597;SDS011;22607;49.550;11.940;2023-09-07T02:40:52;8.30;;;3.78;;
36597;SDS011;22607;49.550;11.940;2023-09-07T02:43:19;8.93;;;4.55;;
36597;SDS011;22607;49.550;11.940;2023-09-07T02:45:46;10.45;;;4.13;;
36597;SDS011;22607;49.550;11.940;2023-09-07T02:48:13;8.52;;;3.80;;
36597;SDS011;22607;49.550;11.940;2023-09-07T02:50:40;8.70;;;3.92;;
36597;SDS011;22607;49.550;11.940;2023-09-07T02:53:07;8.95;;;4.35;;
36597;SDS011;22607;49.550;11.940;2023-09-07T02:58:05;10.30;;;3.92;;
36597;SDS011;22607;49.550;11.940;2023-09-07T03:00:32;9.45;;;4.07;;
36597;SDS011;22607;49.550;11.940;2023-09-07T03:03:00;8.30;;;3.60;;
36597;SDS011;22607;49.550;11.940;2023-09-07T03:05:29;7.30;;;3.30;;
36597;SDS011;22607;49.550;11.940;2023-09-07T03:07:56;9.40;;;3.50;;
36597;SDS011;22607;49.550;11.940;2023-09-07T03:10:22;9.32;;;4.10;;
36597;SDS011;22607;49.550;11.940;2023-09-07T03:12:49;9.77;;;3.88;;
36597;SDS011;22607;49.550;11.940;2023-09-07T03:15:16;9.45;;;4.35;;
36597;SDS011;22607;49.550;11.940;2023-09-07T03:17:42;7.72;;;3.55;;
36597;SDS011;22607;49.550;11.940;2023-09-07T03:20:09;8.07;;;3.75;;
36597;SDS011;22607;49.550;11.940;2023-09-07T03:22:41;8.32;;;3.63;;
36597;SDS011;22607;49.550;11.940;2023-09-07T03:25:08;8.40;;;3.40;;
36597;SDS011;22607;49.550;11.940;2023-09-07T03:27:38;9.10;;;4.38;;
36597;SDS011;22607;49.550;11.940;2023-09-07T03:30:05;8.57;;;3.83;;
36597;SDS011;22607;49.550;11.940;2023-09-07T03:32:34;9.30;;;4.00;;
36597;SDS011;22607;49.550;11.940;2023-09-07T03:35:02;7.97;;;3.50;;
36597;SDS011;22607;49.550;11.940;2023-09-07T03:37:39;8.32;;;3.33;;
36597;SDS011;22607;49.550;11.940;2023-09-07T03:40:08;8.75;;;4.03;;
36597;SDS011;22607;49.550;11.940;2023-09-07T03:42:36;9.43;;;4.70;;
36597;SDS011;22607;49.550;11.940;2023-09-07T03:45:03;8.43;;;3.80;;
36597;SDS011;22607;49.550;11.940;2023-09-07T03:47:30;8.10;;;3.80;;
36597;SDS011;22607;49.550;11.940;2023-09-07T03:49:57;8.73;;;3.88;;
36597;SDS011;22607;49.550;11.940;2023-09-07T03:52:25;10.55;;;3.60;;
36597;SDS011;22607;49.550;11.940;2023-09-07T03:54:56;8.63;;;3.90;;
36597;SDS011;22607;49.550;11.940;2023-09-07T03:57:24;9.10;;;4.27;;
36597;SDS011;22607;49.550;11.940;2023-09-07T03:59:52;8.30;;;3.97;;
36597;SDS011;22607;49.550;11.940;2023-09-07T04:02:18;7.95;;;3.65;;
36597;SDS011;22607;49.550;11.940;2023-09-07T04:04:49;10.23;;;3.53;;
36597;SDS011;22607;49.550;11.940;2023-09-07T04:07:19;8.93;;;4.20;;
36597;SDS011;22607;49.550;11.940;2023-09-07T04:09:46;9.40;;;3.78;;
36597;SDS011;22607;49.550;11.940;2023-09-07T04:12:13;8.48;;;3.60;;
36597;SDS011;22607;49.550;11.940;2023-09-07T04:14:40;7.93;;;3.65;;
36597;SDS011;22607;49.550;11.940;2023-09-07T04:17:08;8.20;;;4.00;;
36597;SDS011;22607;49.550;11.940;2023-09-07T04:19:34;8.15;;;3.80;;
36597;SDS011;22607;49.550;11.940;2023-09-07T04:22:01;8.10;;;3.97;;
36597;SDS011;22607;49.550;11.940;2023-09-07T04:24:28;7.85;;;3.70;;
36597;SDS011;22607;49.550;11.940;2023-09-07T04:26:58;11.18;;;4.47;;
36597;SDS011;22607;49.550;11.940;2023-09-07T04:29:27;10.68;;;4.40;;
36597;SDS011;22607;49.550;11.940;2023-09-07T04:31:54;10.82;;;3.90;;
36597;SDS011;22607;49.550;11.940;2023-09-07T04:34:21;9.52;;;4.05;;
36597;SDS011;22607;49.550;11.940;2023-09-07T04:36:48;11.07;;;4.10;;
36597;SDS011;22607;49.550;11.940;2023-09-07T04:39:15;8.88;;;4.25;;
36597;SDS011;22607;49.550;11.940;2023-09-07T04:41:41;10.75;;;4.25;;
36597;SDS011;22607;49.550;11.940;2023-09-07T04:44:08;8.52;;;4.38;;
36597;SDS011;22607;49.550;11.940;2023-09-07T04:46:34;9.10;;;4.82;;
36597;SDS011;22607;49.550;11.940;2023-09-07T04:49:01;8.48;;;4.47;;
36597;SDS011;22607;49.550;11.940;2023-09-07T04:51:27;8.98;;;4.50;;
36597;SDS011;22607;49.550;11.940;2023-09-07T04:53:56;8.73;;;4.43;;
36597;SDS011;22607;49.550;11.940;2023-09-07T04:56:23;9.55;;;4.75;;
36597;SDS011;22607;49.550;11.940;2023-09-07T04:58:52;8.52;;;4.03;;
36597;SDS011;22607;49.550;11.940;2023-09-07T05:01:18;8.63;;;4.35;;
36597;SDS011;22607;49.550;11.940;2023-09-07T05:03:45;10.65;;;4.30;;
36597;SDS011;22607;49.550;11.940;2023-09-07T05:06:12;9.45;;;4.20;;
36597;SDS011;22607;49.550;11.940;2023-09-07T05:08:40;8.48;;;4.13;;
36597;SDS011;22607;49.550;11.940;2023-09-07T05:11:06;9.15;;;4.03;;
36597;SDS011;22607;49.550;11.940;2023-09-07T05:13:33;8.90;;;4.45;;
36597;SDS011;22607;49.550;11.940;2023-09-07T05:16:01;10.50;;;4.55;;
36597;SDS011;22607;49.550;11.940;2023-09-07T05:18:28;9.25;;;4.55;;
36597;SDS011;22607;49.550;11.940;2023-09-07T05:20:55;13.43;;;5.30;;
36597;SDS011;22607;49.550;11.940;2023-09-07T05:23:22;12.75;;;5.45;;
36597;SDS011;22607;49.550;11.940;2023-09-07T05:25:49;10.02;;;4.90;;
36597;SDS011;22607;49.550;11.940;2023-09-07T05:28:19;10.73;;;5.00;;
36597;SDS011;22607;49.550;11.940;2023-09-07T05:30:47;8.85;;;4.25;;
36597;SDS011;22607;49.550;11.940;2023-09-07T05:33:15;8.25;;;3.95;;
36597;SDS011;22607;49.550;11.940;2023-09-07T05:35:43;9.40;;;4.47;;
36597;SDS011;22607;49.550;11.940;2023-09-07T05:38:13;8.18;;;4.07;;
36597;SDS011;22607;49.550;11.940;2023-09-07T05:40:43;8.25;;;3.70;;
36597;SDS011;22607;49.550;11.940;2023-09-07T05:43:11;7.57;;;3.42;;
36597;SDS011;22607;49.550;11.940;2023-09-07T05:45:41;7.90;;;3.28;;
36597;SDS011;22607;49.550;11.940;2023-09-07T05:48:08;9.38;;;3.63;;
36597;SDS011;22607;49.550;11.940;2023-09-07T05:50:35;7.20;;;3.45;;
36597;SDS011;22607;49.550;11.940;2023-09-07T05:53:04;8.50;;;3.65;;
36597;SDS011;22607;49.550;11.940;2023-09-07T05:55:31;7.88;;;3.42;;
36597;SDS011;22607;49.550;11.940;2023-09-07T05:57:58;8.75;;;3.13;;
36597;SDS011;22607;49.550;11.940;2023-09-07T06:00:28;7.97;;;3.70;;
36597;SDS011;22607;49.550;11.940;2023-09-07T06:02:55;7.30;;;3.10;;
36597;SDS011;22607;49.550;11.940;2023-09-07T06:05:22;9.15;;;3.72;;
36597;SDS011;22607;49.550;11.940;2023-09-07T06:07:49;7.20;;;3.15;;
36597;SDS011;22607;49.550;11.940;2023-09-07T06:10:16;8.32;;;3.13;;
36597;SDS011;22607;49.550;11.940;2023-09-07T06:12:43;8.05;;;3.25;;
36597;SDS011;22607;49.550;11.940;2023-09-07T06:15:10;7.97;;;3.08;;
36597;SDS011;22607;49.550;11.940;2023-09-07T06:17:37;7.50;;;3.08;;
36597;SDS011;22607;49.550;11.940;2023-09-07T06:20:04;7.30;;;3.03;;
36597;SDS011;22607;49.550;11.940;2023-09-07T06:22:32;7.85;;;3.17;;
36597;SDS011;22607;49.550;11.940;2023-09-07T06:24:58;7.80;;;3.30;;
36597;SDS011;22607;49.550;11.940;2023-09-07T06:27:25;6.57;;;2.78;;
36597;SDS011;22607;49.550;11.940;2023-09-07T06:29:52;7.80;;;2.83;;
36597;SDS011;22607;49.550;11.940;2023-09-07T06:32:18;8.48;;;2.75;;
36597;SDS011;22607;49.550;11.940;2023-09-07T06:34:45;7.35;;;3.05;;
36597;SDS011;22607;49.550;11.940;2023-09-07T06:37:12;7.00;;;3.20;;
36597;SDS011;22607;49.550;11.940;2023-09-07T06:39:38;7.43;;;3.08;;
36597;SDS011;22607;49.550;11.940;2023-09-07T06:42:05;7.95;;;3.30;;
36597;SDS011;22607;49.550;11.940;2023-09-07T06:47:37;7.20;;;3.10;;
36597;SDS011;22607;49.550;11.940;2023-09-07T06:50:04;6.97;;;2.85;;
36597;SDS011;22607;49.550;11.940;2023-09-07T06:52:31;7.90;;;3.15;;
36597;SDS011;22607;49.550;11.940;2023-09-07T06:54:58;7.10;;;2.85;;
36597;SDS011;22607;49.550;11.940;2023-09-07T06:57:25;8.70;;;3.20;;
36597;SDS011;22607;49.550;11.940;2023-09-07T06:59:51;8.00;;;3.15;;
36597;SDS011;22607;49.550;11.940;2023-09-07T07:02:19;7.90;;;3.40;;
36597;SDS011;22607;49.550;11.940;2023-09-07T07:04:46;7.68;;;3.00;;
36597;SDS011;22607;49.550;11.940;2023-09-07T07:07:13;7.50;;;3.13;;
36597;SDS011;22607;49.550;11.940;2023-09-07T07:09:39;7.63;;;3.20;;
36597;SDS011;22607;49.550;11.940;2023-09-07T07:12:06;8.15;;;2.90;;
36597;SDS011;22607;49.550;11.940;2023-09-07T07:14:39;8.48;;;3.00;;
36597;SDS011;22607;49.550;11.940;2023-09-07T07:17:05;8.90;;;3.08;;
36597;SDS011;22607;49.550;11.940;2023-09-07T07:19:32;8.73;;;3.25;;
36597;SDS011;22607;49.550;11.940;2023-09-07T07:21:59;7.90;;;3.10;;
36597;SDS011;22607;49.550;11.940;2023-09-07T07:24:26;7.53;;;3.10;;
36597;SDS011;22607;49.550;11.940;2023-09-07T07:26:53;7.93;;;2.92;;
36597;SDS011;22607;49.550;11.940;2023-09-07T07:29:20;8.25;;;3.22;;
36597;SDS011;22607;49.550;11.940;2023-09-07T07:31:47;9.38;;;2.90;;
36597;SDS011;22607;49.550;11.940;2023-09-07T07:34:14;9.52;;;3.00;;
36597;SDS011;22607;49.550;11.940;2023-09-07T07:36:41;7.07;;;2.80;;
36597;SDS011;22607;49.550;11.940;2023-09-07T07:39:08;7.28;;;3.08;;
36597;SDS011;22607;49.550;11.940;2023-09-07T07:41:35;10.25;;;3.10;;
36597;SDS011;22607;49.550;11.940;2023-09-07T07:44:02;7.10;;;2.60;;
36597;SDS011;22607;49.550;11.940;2023-09-07T07:46:29;7.63;;;3.17;;
36597;SDS011;22607;49.550;11.940;2023-09-07T07:48:56;6.68;;;2.75;;
36597;SDS011;22607;49.550;11.940;2023-09-07T07:53:53;7.00;;;2.80;;
36597;SDS011;22607;49.550;11.940;2023-09-07T07:56:22;7.38;;;2.97;;
36597;SDS011;22607;49.550;11.940;2023-09-07T07:58:50;7.53;;;2.95;;
36597;SDS011;22607;49.550;11.940;2023-09-07T08:01:18;8.25;;;3.10;;
36597;SDS011;22607;49.550;11.940;2023-09-07T08:03:47;7.55;;;2.78;;
36597;SDS011;22607;49.550;11.940;2023-09-07T08:06:13;6.85;;;2.80;;
36597;SDS011;22607;49.550;11.940;2023-09-07T08:08:40;6.85;;;2.72;;
36597;SDS011;22607;49.550;11.940;2023-09-07T08:11:07;6.75;;;2.50;;
36597;SDS011;22607;49.550;11.940;2023-09-07T08:13:35;7.30;;;2.90;;
36597;SDS011;22607;49.550;11.940;2023-09-07T08:16:09;6.47;;;2.78;;
36597;SDS011;22607;49.550;11.940;2023-09-07T08:18:39;8.48;;;3.03;;
36597;SDS011;22607;49.550;11.940;2023-09-07T08:21:07;7.80;;;2.95;;
36597;SDS011;22607;49.550;11.940;2023-09-07T08:23:33;15.80;;;3.40;;
36597;SDS011;22607;49.550;11.940;2023-09-07T08:26:01;7.30;;;3.20;;
36597;SDS011;22607;49.550;11.940;2023-09-07T08:28:27;7.75;;;2.83;;
36597;SDS011;22607;49.550;11.940;2023-09-07T08:30:55;6.82;;;2.53;;
36597;SDS011;22607;49.550;11.940;2023-09-07T08:33:25;9.07;;;2.67;;
36597;SDS011;22607;49.550;11.940;2023-09-07T08:35:57;6.43;;;2.67;;
36597;SDS011;22607;49.550;11.940;2023-09-07T08:41:00;6.95;;;2.47;;
36597;SDS011;22607;49.550;11.940;2023-09-07T08:43:32;7.18;;;2.67;;
36597;SDS011;22607;49.550;11.940;2023-09-07T08:46:04;8.35;;;3.08;;
36597;SDS011;22607;49.550;11.940;2023-09-07T08:48:41;6.20;;;2.40;;
36597;SDS011;22607;49.550;11.940;2023-09-07T08:51:10;7.82;;;3.13;;
36597;SDS011;22607;49.550;11.940;2023-09-07T08:53:39;6.50;;;2.60;;
36597;SDS011;22607;49.550;11.940;2023-09-07T08:56:07;7.53;;;2.70;;
36597;SDS011;22607;49.550;11.940;2023-09-07T08:58:37;7.90;;;2.92;;
36597;SDS011;22607;49.550;11.940;2023-09-07T09:01:03;6.90;;;2.65;;
36597;SDS011;22607;49.550;11.940;2023-09-07T09:03:34;8.10;;;2.75;;
36597;SDS011;22607;49.550;11.940;2023-09-07T09:06:01;6.78;;;2.50;;
36597;SDS011;22607;49.550;11.940;2023-09-07T09:08:29;7.05;;;2.75;;
36597;SDS011;22607;49.550;11.940;2023-09-07T09:11:01;8.13;;;2.78;;
36597;SDS011;22607;49.550;11.940;2023-09-07T09:13:30;7.57;;;2.85;;
36597;SDS011;22607;49.550;11.940;2023-09-07T09:15:59;7.50;;;2.60;;
36597;SDS011;22607;49.550;11.940;2023-09-07T09:18:27;6.97;;;2.80;;
36597;SDS011;22607;49.550;11.940;2023-09-07T09:20:55;8.00;;;2.40;;
36597;SDS011;22607;49.550;11.940;2023-09-07T09:23:22;6.90;;;2.70;;
36597;SDS011;22607;49.550;11.940;2023-09-07T09:25:49;7.00;;;2.50;;
36597;SDS011;22607;49.550;11.940;2023-09-07T09:28:16;7.93;;;2.72;;
36597;SDS011;22607;49.550;11.940;2023-09-07T09:30:43;6.25;;;2.67;;
36597;SDS011;22607;49.550;11.940;2023-09-07T09:33:10;7.32;;;2.75;;
36597;SDS011;22607;49.550;11.940;2023-09-07T09:35:37;6.72;;;2.50;;
36597;SDS011;22607;49.550;11.940;2023-09-07T09:38:05;6.47;;;2.67;;
36597;SDS011;22607;49.550;11.940;2023-09-07T09:40:33;7.80;;;2.88;;
36597;SDS011;22607;49.550;11.940;2023-09-07T09:43:05;7.18;;;2.70;;
36597;SDS011;22607;49.550;11.940;2023-09-07T09:45:32;7.45;;;2.70;;
36597;SDS011;22607;49.550;11.940;2023-09-07T09:48:01;6.70;;;2.80;;
36597;SDS011;22607;49.550;11.940;2023-09-07T09:50:31;6.68;;;2.45;;
36597;SDS011;22607;49.550;11.940;2023-09-07T09:52:58;6.95;;;2.90;;
36597;SDS011;22607;49.550;11.940;2023-09-07T09:55:26;6.93;;;2.80;;
36597;SDS011;22607;49.550;11.940;2023-09-07T09:57:52;8.73;;;2.83;;
36597;SDS011;22607;49.550;11.940;2023-09-07T10:00:23;6.97;;;2.60;;
36597;SDS011;22607;49.550;11.940;2023-09-07T10:03:02;6.85;;;2.47;;
36597;SDS011;22607;49.550;11.940;2023-09-07T10:05:33;8.07;;;3.00;;
36597;SDS011;22607;49.550;11.940;2023-09-07T10:08:01;6.40;;;2.63;;
36597;SDS011;22607;49.550;11.940;2023-09-07T10:10:35;6.50;;;2.33;;
36597;SDS011;22607;49.550;11.940;2023-09-07T10:13:03;6.70;;;2.75;;
36597;SDS011;22607;49.550;11.940;2023-09-07T10:15:30;7.30;;;2.90;;
36597;SDS011;22607;49.550;11.940;2023-09-07T10:20:47;7.70;;;2.83;;
36597;SDS011;22607;49.550;11.940;2023-09-07T10:23:22;8.02;;;2.78;;
36597;SDS011;22607;49.550;11.940;2023-09-07T10:25:50;6.70;;;2.90;;
36597;SDS011;22607;49.550;11.940;2023-09-07T10:30:46;6.57;;;2.70;;
36597;SDS011;22607;49.550;11.940;2023-09-07T10:33:34;7.30;;;3.00;;
36597;SDS011;22607;49.550;11.940;2023-09-07T10:36:03;6.70;;;2.60;;
36597;SDS011;22607;49.550;11.940;2023-09-07T10:38:34;7.45;;;2.88;;
36597;SDS011;22607;49.550;11.940;2023-09-07T10:41:02;7.32;;;2.80;;
36597;SDS011;22607;49.550;11.940;2023-09-07T10:43:32;6.75;;;2.42;;
36597;SDS011;22607;49.550;11.940;2023-09-07T10:46:00;7.40;;;2.50;;
36597;SDS011;22607;49.550;11.940;2023-09-07T10:48:31;7.68;;;2.90;;
36597;SDS011;22607;49.550;11.940;2023-09-07T10:50:58;8.18;;;3.30;;
36597;SDS011;22607;49.550;11.940;2023-09-07T10:53:25;7.40;;;3.08;;
36597;SDS011;22607;49.550;11.940;2023-09-07T10:55:57;7.05;;;2.90;;
36597;SDS011;22607;49.550;11.940;2023-09-07T10:58:31;7.07;;;2.90;;
36597;SDS011;22607;49.550;11.940;2023-09-07T11:01:02;8.48;;;3.25;;
36597;SDS011;22607;49.550;11.940;2023-09-07T11:03:32;7.13;;;2.63;;
36597;SDS011;22607;49.550;11.940;2023-09-07T11:06:01;6.82;;;2.60;;
36597;SDS011;22607;49.550;11.940;2023-09-07T11:08:32;7.65;;;2.70;;
36597;SDS011;22607;49.550;11.940;2023-09-07T11:11:02;8.00;;;2.80;;
36597;SDS011;22607;49.550;11.940;2023-09-07T11:13:29;7.95;;;2.70;;
36597;SDS011;22607;49.550;11.940;2023-09-07T11:15:57;6.13;;;2.38;;
36597;SDS011;22607;49.550;11.940;2023-09-07T11:18:25;7.60;;;2.70;;
36597;SDS011;22607;49.550;11.940;2023-09-07T11:20:53;7.55;;;2.78;;
36597;SDS011;22607;49.550;11.940;2023-09-07T11:23:21;7.47;;;2.95;;
36597;SDS011;22607;49.550;11.940;2023-09-07T11:25:49;8.85;;;3.17;;
36597;SDS011;22607;49.550;11.940;2023-09-07T11:28:19;8.73;;;3.13;;
36597;SDS011;22607;49.550;11.940;2023-09-07T11:30:52;6.82;;;2.90;;
36597;SDS011;22607;49.550;11.940;2023-09-07T11:33:20;7.68;;;3.00;;
36597;SDS011;22607;49.550;11.940;2023-09-07T11:35:48;7.93;;;2.63;;
36597;SDS011;22607;49.550;11.940;2023-09-07T11:38:15;7.97;;;2.70;;
36597;SDS011;22607;49.550;11.940;2023-09-07T11:40:43;7.40;;;2.85;;
36597;SDS011;22607;49.550;11.940;2023-09-07T11:43:15;7.40;;;3.15;;
36597;SDS011;22607;49.550;11.940;2023-09-07T11:45:43;6.70;;;2.90;;
36597;SDS011;22607;49.550;11.940;2023-09-07T11:48:10;7.95;;;2.85;;
36597;SDS011;22607;49.550;11.940;2023-09-07T11:50:38;8.10;;;2.90;;
36597;SDS011;22607;49.550;11.940;2023-09-07T11:53:06;7.80;;;2.90;;
36597;SDS011;22607;49.550;11.940;2023-09-07T11:55:34;7.57;;;3.08;;
36597;SDS011;22607;49.550;11.940;2023-09-07T11:58:01;7.30;;;2.90;;
36597;SDS011;22607;49.550;11.940;2023-09-07T12:00:28;7.60;;;2.90;;
36597;SDS011;22607;49.550;11.940;2023-09-07T12:02:58;9.00;;;3.00;;
36597;SDS011;22607;49.550;11.940;2023-09-07T12:05:25;6.80;;;2.70;;
36597;SDS011;22607;49.550;11.940;2023-09-07T12:07:58;7.22;;;2.90;;
36597;SDS011;22607;49.550;11.940;2023-09-07T12:10:25;7.15;;;2.95;;
36597;SDS011;22607;49.550;11.940;2023-09-07T12:12:54;7.40;;;2.80;;
36597;SDS011;22607;49.550;11.940;2023-09-07T12:15:20;8.15;;;2.95;;
36597;SDS011;22607;49.550;11.940;2023-09-07T12:17:47;7.63;;;2.97;;
36597;SDS011;22607;49.550;11.940;2023-09-07T12:20:15;7.40;;;2.70;;
36597;SDS011;22607;49.550;11.940;2023-09-07T12:22:41;7.60;;;2.78;;
36597;SDS011;22607;49.550;11.940;2023-09-07T12:25:09;8.07;;;2.92;;
36597;SDS011;22607;49.550;11.940;2023-09-07T12:27:41;7.70;;;3.08;;
36597;SDS011;22607;49.550;11.940;2023-09-07T12:30:15;8.13;;;2.95;;
36597;SDS011;22607;49.550;11.940;2023-09-07T12:32:45;7.15;;;2.90;;
36597;SDS011;22607;49.550;11.940;2023-09-07T12:35:11;7.40;;;2.95;;
36597;SDS011;22607;49.550;11.940;2023-09-07T12:37:38;7.90;;;3.03;;
36597;SDS011;22607;49.550;11.940;2023-09-07T12:40:05;6.88;;;2.70;;
36597;SDS011;22607;49.550;11.940;2023-09-07T12:42:42;8.18;;;3.15;;
36597;SDS011;22607;49.550;11.940;2023-09-07T12:45:11;6.90;;;2.65;;
36597;SDS011;22607;49.550;11.940;2023-09-07T12:47:39;7.50;;;2.72;;
36597;SDS011;22607;49.550;11.940;2023-09-07T12:50:06;7.18;;;2.60;;
36597;SDS011;22607;49.550;11.940;2023-09-07T12:52:33;8.35;;;2.90;;
36597;SDS011;22607;49.550;11.940;2023-09-07T12:55:04;7.00;;;2.53;;
36597;SDS011;22607;49.550;11.940;2023-09-07T12:57:33;8.48;;;2.95;;
36597;SDS011;22607;49.550;11.940;2023-09-07T13:00:01;8.10;;;2.60;;
36597;SDS011;22607;49.550;11.940;2023-09-07T13:02:40;7.10;;;2.90;;
36597;SDS011;22607;49.550;11.940;2023-09-07T13:05:07;7.22;;;2.63;;
36597;SDS011;22607;49.550;11.940;2023-09-07T13:07:34;8.07;;;2.63;;
36597;SDS011;22607;49.550;11.940;2023-09-07T13:10:01;7.72;;;2.55;;
36597;SDS011;22607;49.550;11.940;2023-09-07T13:12:31;8.15;;;2.40;;
36597;SDS011;22607;49.550;11.940;2023-09-07T13:15:00;8.18;;;2.50;;
36597;SDS011;22607;49.550;11.940;2023-09-07T13:17:28;6.88;;;2.58;;
36597;SDS011;22607;49.550;11.940;2023-09-07T13:19:54;6.32;;;2.40;;
36597;SDS011;22607;49.550;11.940;2023-09-07T13:22:21;6.57;;;2.50;;
36597;SDS011;22607;49.550;11.940;2023-09-07T13:24:48;6.72;;;2.60;;
36597;SDS011;22607;49.550;11.940;2023-09-07T13:27:16;7.05;;;2.70;;
36597;SDS011;22607;49.550;11.940;2023-09-07T13:29:42;9.60;;;2.50;;
36597;SDS011;22607;49.550;11.940;2023-09-07T13:32:09;6.25;;;2.40;;
36597;SDS011;22607;49.550;11.940;2023-09-07T13:34:36;6.90;;;2.58;;
36597;SDS011;22607;49.550;11.940;2023-09-07T13:37:02;8.10;;;2.47;;
36597;SDS011;22607;49.550;11.940;2023-09-07T13:39:29;7.82;;;2.58;;
36597;SDS011;22607;49.550;11.940;2023-09-07T13:41:56;6.22;;;2.10;;
36597;SDS011;22607;49.550;11.940;2023-09-07T13:44:22;7.18;;;2.65;;
36597;SDS011;22607;49.550;11.940;2023-09-07T13:46:55;7.55;;;2.60;;
36597;SDS011;22607;49.550;11.940;2023-09-07T13:49:22;6.97;;;2.13;;
36597;SDS011;22607;49.550;11.940;2023-09-07T13:51:49;7.25;;;2.40;;
36597;SDS011;22607;49.550;11.940;2023-09-07T13:54:16;9.25;;;2.60;;
36597;SDS011;22607;49.550;11.940;2023-09-07T13:56:43;7.78;;;2.63;;
36597;SDS011;22607;49.550;11.940;2023-09-07T13:59:11;6.63;;;2.20;;
36597;SDS011;22607;49.550;11.940;2023-09-07T14:01:38;7.65;;;2.20;;
36597;SDS011;22607;49.550;11.940;2023-09-07T14:04:17;7.25;;;2.40;;
36597;SDS011;22607;49.550;11.940;2023-09-07T14:06:44;6.10;;;2.05;;
36597;SDS011;22607;49.550;11.940;2023-09-07T14:09:10;7.55;;;2.50;;
36597;SDS011;22607;49.550;11.940;2023-09-07T14:11:47;6.55;;;2.30;;
36597;SDS011;22607;49.550;11.940;2023-09-07T14:14:23;7.78;;;2.70;;
36597;SDS011;22607;49.550;11.940;2023-09-07T14:16:50;6.47;;;2.58;;
36597;SDS011;22607;49.550;11.940;2023-09-07T14:19:21;7.15;;;2.33;;
36597;SDS011;22607;49.550;11.940;2023-09-07T14:21:49;7.07;;;2.40;;
36597;SDS011;22607;49.550;11.940;2023-09-07T14:24:15;9.40;;;2.42;;
36597;SDS011;22607;49.550;11.940;2023-09-07T14:26:42;7.05;;;2.58;;
36597;SDS011;22607;49.550;11.940;2023-09-07T14:29:08;7.13;;;2.40;;
36597;SDS011;22607;49.550;11.940;2023-09-07T14:31:35;6.20;;;2.28;;
36597;SDS011;22607;49.550;11.940;2023-09-07T14:34:01;7.38;;;2.30;;
36597;SDS011;22607;49.550;11.940;2023-09-07T14:36:29;7.40;;;2.38;;
36597;SDS011;22607;49.550;11.940;2023-09-07T14:38:55;6.47;;;2.35;;
36597;SDS011;22607;49.550;11.940;2023-09-07T14:41:22;6.75;;;2.30;;
36597;SDS011;22607;49.550;11.940;2023-09-07T14:43:49;8.32;;;2.38;;
36597;SDS011;22607;49.550;11.940;2023-09-07T14:46:16;6.68;;;2.60;;
36597;SDS011;22607;49.550;11.940;2023-09-07T14:48:43;8.60;;;2.85;;
36597;SDS011;22607;49.550;11.940;2023-09-07T14:51:11;6.78;;;2.40;;
36597;SDS011;22607;49.550;11.940;2023-09-07T14:53:37;7.80;;;2.38;;
36597;SDS011;22607;49.550;11.940;2023-09-07T14:56:04;7.68;;;2.40;;